Time;durP1;ratioP1;P1;durP2;ratioP2;P2;SDS_P1;SDS_P2;PMS_P1;PMS_P2;Temp;Humidity;BMP_temperature;BMP_pressure;BME280_temperature;BME280_humidity;BME280_pressure;Samples;Min_cycle;Max_cycle;Signal;HPM_P1;HPM_P2
2022/10/02 00:01:44;;;;;;;0.68;0.68;;;11.70;99.90;;;;;;5019305;28;20414;-37
2022/10/02 00:04:14;;;;;;;2.00;0.80;;;11.70;99.90;;;;;;5019163;28;20030;-42
2022/10/02 00:06:45;;;;;;;0.93;0.93;;;11.70;99.90;;;;;;5020387;28;20112;-40
2022/10/02 00:09:21;;;;;;;0.82;0.70;;;11.70;99.90;;;;;;5020225;28;20153;-42
2022/10/02 00:11:52;;;;;;;1.13;1.10;;;11.70;99.90;;;;;;5019899;28;20525;-43
2022/10/02 00:14:21;;;;;;;1.38;0.90;;;11.70;99.90;;;;;;5018620;28;20577;-39
2022/10/02 00:16:50;;;;;;;1.65;0.90;;;11.80;99.90;;;;;;5016400;28;20411;-40
2022/10/02 00:19:18;;;;;;;3.95;1.00;;;11.80;99.90;;;;;;5020956;28;20033;-41
2022/10/02 00:21:52;;;;;;;1.10;0.82;;;11.80;99.90;;;;;;5019962;28;20045;-43
2022/10/02 00:24:23;;;;;;;1.58;1.02;;;11.80;99.90;;;;;;5022100;28;20044;-41
2022/10/02 00:27:08;;;;;;;1.00;0.73;;;11.80;99.90;;;;;;5018775;28;20078;-38
2022/10/02 00:29:50;;;;;;;1.63;1.00;;;11.70;99.90;;;;;;5017247;28;20037;-40
2022/10/02 00:32:32;;;;;;;2.47;1.00;;;11.70;99.90;;;;;;5025463;28;20040;-43
2022/10/02 00:35:25;;;;;;;1.85;1.00;;;11.70;99.90;;;;;;5018627;28;20402;-43
2022/10/02 00:37:57;;;;;;;2.60;0.95;;;11.70;99.90;;;;;;5022992;28;20060;-41
2022/10/02 00:40:43;;;;;;;2.08;0.88;;;11.70;99.90;;;;;;5017567;28;20052;-34
2022/10/02 00:43:16;;;;;;;2.83;1.10;;;11.70;99.90;;;;;;5023256;28;20020;-42
2022/10/02 00:45:47;;;;;;;1.65;1.17;;;11.70;99.90;;;;;;5020920;28;20104;-41
2022/10/02 00:48:43;;;;;;;0.85;0.77;;;11.70;99.90;;;;;;5024275;28;20036;-41
2022/10/02 00:51:50;;;;;;;0.85;0.85;;;11.60;99.90;;;;;;5023302;28;20136;-43
2022/10/02 00:54:49;;;;;;;1.00;0.80;;;11.70;99.90;;;;;;5018832;28;20025;-41
2022/10/02 00:57:27;;;;;;;3.13;1.08;;;11.60;99.90;;;;;;5015178;28;20106;-41
2022/10/02 01:00:12;;;;;;;0.85;0.85;;;11.70;99.90;;;;;;5023443;28;20038;-37
2022/10/02 01:03:25;;;;;;;0.90;0.90;;;11.60;99.90;;;;;;5021169;28;20060;-42
2022/10/02 01:05:51;;;;;;;1.65;1.00;;;11.60;99.90;;;;;;5000344;28;20042;-41
2022/10/02 01:08:17;;;;;;;0.90;0.90;;;11.60;99.90;;;;;;5019133;28;20037;-43
2022/10/02 01:10:44;;;;;;;1.95;1.02;;;11.60;99.90;;;;;;5022892;28;20041;-41
2022/10/02 01:13:09;;;;;;;1.48;1.05;;;11.60;99.90;;;;;;5024362;28;20057;-40
2022/10/02 01:15:38;;;;;;;0.90;0.90;;;11.60;99.90;;;;;;5017108;28;20119;-42
2022/10/02 01:18:05;;;;;;;1.90;1.13;;;11.50;99.90;;;;;;5021032;28;20136;-40
2022/10/02 01:20:44;;;;;;;1.83;0.98;;;11.60;99.90;;;;;;5020222;28;20053;-38
2022/10/02 01:23:27;;;;;;;1.63;1.48;;;11.60;99.90;;;;;;5027353;28;20034;-42
2022/10/02 01:25:53;;;;;;;1.50;1.30;;;11.60;99.90;;;;;;5021119;28;20038;-40
2022/10/02 01:28:20;;;;;;;0.70;0.70;;;11.60;99.90;;;;;;5024757;28;20021;-43
2022/10/02 01:30:50;;;;;;;1.23;1.10;;;11.50;99.90;;;;;;5025352;28;20041;-43
2022/10/02 01:33:16;;;;;;;1.00;1.00;;;11.60;99.90;;;;;;5026401;28;20061;-42
2022/10/02 01:35:42;;;;;;;1.00;1.00;;;11.50;99.90;;;;;;5022692;28;20894;-38
2022/10/02 01:38:12;;;;;;;2.03;0.95;;;11.50;99.90;;;;;;5024643;28;20037;-40
2022/10/02 01:40:39;;;;;;;1.20;1.10;;;11.50;99.90;;;;;;5018802;28;20549;-42
2022/10/02 01:43:29;;;;;;;1.10;1.00;;;11.50;99.90;;;;;;5026962;28;20164;-42
2022/10/02 01:46:11;;;;;;;1.00;0.90;;;11.50;99.90;;;;;;5020522;28;20129;-43
2022/10/02 01:48:55;;;;;;;1.98;1.10;;;11.60;99.90;;;;;;5014301;28;20471;-42
2022/10/02 01:51:57;;;;;;;1.98;1.00;;;11.60;99.90;;;;;;5021483;28;20136;-41
2022/10/02 01:54:39;;;;;;;2.28;0.90;;;11.60;99.90;;;;;;5019455;28;20128;-40
2022/10/02 01:57:38;;;;;;;1.30;1.20;;;11.60;99.90;;;;;;5020668;28;20029;-42
2022/10/02 02:00:12;;;;;;;2.65;0.95;;;11.60;99.90;;;;;;5018861;28;20062;-35
2022/10/02 02:03:05;;;;;;;2.22;1.00;;;11.60;99.90;;;;;;5021285;28;20030;-43
2022/10/02 02:05:45;;;;;;;1.15;1.05;;;11.70;99.90;;;;;;5024657;28;20071;-41
2022/10/02 02:08:32;;;;;;;2.53;1.08;;;11.70;99.90;;;;;;5028904;28;20030;-37
2022/10/02 02:11:12;;;;;;;3.95;1.80;;;11.70;99.90;;;;;;5021645;28;20040;-41
2022/10/02 02:14:01;;;;;;;1.38;1.00;;;11.70;99.90;;;;;;5023262;28;20083;-43
2022/10/02 02:16:51;;;;;;;1.10;0.88;;;11.70;99.90;;;;;;5024692;28;20124;-43
2022/10/02 02:19:28;;;;;;;1.95;1.10;;;11.70;99.90;;;;;;5020775;28;20391;-37
2022/10/02 02:22:04;;;;;;;2.20;0.88;;;11.70;99.90;;;;;;5019171;28;20135;-42
2022/10/02 02:24:32;;;;;;;1.88;1.27;;;11.70;99.90;;;;;;5025005;28;20029;-43
2022/10/02 02:27:00;;;;;;;;;;;11.70;99.90;;;;;;5021957;28;20075;-38
2022/10/02 02:29:31;;;;;;;0.90;0.90;;;11.70;99.90;;;;;;5023610;28;19962;-37
2022/10/02 02:31:58;;;;;;;2.85;1.00;;;11.70;99.90;;;;;;5019503;28;20033;-43
2022/10/02 02:35:00;;;;;;;18.30;4.80;;;11.60;99.90;;;;;;5021176;28;20029;-42
2022/10/02 02:37:30;;;;;;;10.32;2.55;;;11.60;99.90;;;;;;5001921;28;20743;-41
2022/10/02 02:39:59;;;;;;;7.75;2.78;;;11.60;99.90;;;;;;5021567;28;20429;-39
2022/10/02 02:42:29;;;;;;;2.58;1.30;;;11.70;99.90;;;;;;5019333;28;20109;-43
2022/10/02 02:45:03;;;;;;;3.65;1.63;;;11.70;99.90;;;;;;5024888;28;20032;-39
2022/10/02 02:47:45;;;;;;;5.20;1.40;;;11.70;99.90;;;;;;5018989;28;20159;-37
2022/10/02 02:50:29;;;;;;;2.10;1.33;;;11.70;99.90;;;;;;5018903;28;20112;-39
2022/10/02 02:53:14;;;;;;;1.30;1.15;;;11.70;99.90;;;;;;5017417;28;20503;-40
2022/10/02 02:55:51;;;;;;;2.15;1.35;;;11.80;99.90;;;;;;5022487;28;20037;-41
2022/10/02 02:58:24;;;;;;;2.67;1.20;;;11.70;99.90;;;;;;5022404;28;20038;-42
2022/10/02 03:00:49;;;;;;;2.10;1.08;;;11.70;99.90;;;;;;5018570;28;20064;-42
2022/10/02 03:03:16;;;;;;;1.60;0.90;;;11.80;99.90;;;;;;5021154;28;20763;-42
2022/10/02 03:05:47;;;;;;;1.42;1.05;;;11.80;99.90;;;;;;5021512;28;20052;-35
2022/10/02 03:08:28;;;;;;;1.50;0.98;;;11.80;99.90;;;;;;5024726;28;20036;-43
2022/10/02 03:11:13;;;;;;;2.00;1.60;;;11.90;99.90;;;;;;5020722;28;20031;-41
2022/10/02 03:14:11;;;;;;;3.30;1.00;;;11.90;99.90;;;;;;5026226;28;20021;-41
2022/10/02 03:16:40;;;;;;;2.65;1.42;;;11.90;99.90;;;;;;5019468;28;20025;-41
2022/10/02 03:19:36;;;;;;;1.27;1.05;;;11.90;99.90;;;;;;5024076;28;20064;-40
2022/10/02 03:22:10;;;;;;;1.30;0.90;;;11.80;99.90;;;;;;5024020;28;20041;-41
2022/10/02 03:24:58;;;;;;;1.00;1.00;;;11.90;99.90;;;;;;5025386;28;20079;-40
2022/10/02 03:27:36;;;;;;;2.47;1.00;;;11.90;99.90;;;;;;5021396;28;20017;-40
2022/10/02 03:30:04;;;;;;;1.10;1.00;;;12.00;99.90;;;;;;5020739;28;20056;-40
2022/10/02 03:32:32;;;;;;;1.13;0.80;;;12.00;99.90;;;;;;5017953;28;20044;-39
2022/10/02 03:34:58;;;;;;;3.13;1.10;;;12.00;99.90;;;;;;5022001;28;20034;-41
2022/10/02 03:37:24;;;;;;;2.92;0.98;;;12.00;99.90;;;;;;5020754;28;20021;-40
2022/10/02 03:39:51;;;;;;;2.75;1.10;;;11.90;99.90;;;;;;5020337;28;20047;-38
2022/10/02 03:42:22;;;;;;;3.75;1.30;;;12.00;99.90;;;;;;5021188;28;20382;-40
2022/10/02 03:44:48;;;;;;;2.03;0.95;;;11.90;99.90;;;;;;5022079;28;20025;-43
2022/10/02 03:47:13;;;;;;;3.17;1.38;;;11.90;99.90;;;;;;5024262;28;20025;-41
2022/10/02 03:49:39;;;;;;;2.92;1.10;;;11.90;99.90;;;;;;5022328;28;20061;-40
2022/10/02 03:52:05;;;;;;;2.17;1.00;;;11.90;99.90;;;;;;5022213;28;20033;-37
2022/10/02 03:54:34;;;;;;;2.53;1.15;;;12.00;99.90;;;;;;5021971;28;20376;-42
2022/10/02 03:57:04;;;;;;;3.58;1.90;;;12.00;99.90;;;;;;5022865;28;20498;-40
2022/10/02 03:59:41;;;;;;;1.38;1.27;;;12.00;99.90;;;;;;5020396;28;20042;-42
2022/10/02 04:02:19;;;;;;;1.87;1.37;;;12.00;99.90;;;;;;5018276;28;20395;-41
2022/10/02 04:04:53;;;;;;;1.80;1.23;;;12.00;99.90;;;;;;5022126;28;20022;-43
2022/10/02 04:07:29;;;;;;;5.63;1.80;;;12.00;99.90;;;;;;5022850;28;20037;-42
2022/10/02 04:10:22;;;;;;;1.33;1.20;;;12.00;99.90;;;;;;5022584;28;20056;-33
2022/10/02 04:12:52;;;;;;;1.70;1.02;;;12.00;99.90;;;;;;5023525;28;20425;-42
2022/10/02 04:15:28;;;;;;;2.40;1.35;;;12.10;99.90;;;;;;5019075;28;20048;-42
2022/10/02 04:18:06;;;;;;;1.60;1.20;;;12.10;99.90;;;;;;5022476;28;20041;-41
2022/10/02 04:20:48;;;;;;;2.35;1.15;;;12.00;99.90;;;;;;5016895;28;20088;-39
2022/10/02 04:23:20;;;;;;;1.63;1.10;;;12.10;99.90;;;;;;5022410;28;20109;-42
2022/10/02 04:26:02;;;;;;;2.38;1.27;;;12.10;99.90;;;;;;5020743;28;20040;-39
2022/10/02 04:28:58;;;;;;;1.58;1.38;;;12.10;99.90;;;;;;5016487;28;20060;-42
2022/10/02 04:31:26;;;;;;;2.95;1.10;;;12.10;99.90;;;;;;5019979;28;20030;-42
2022/10/02 04:33:53;;;;;;;3.75;1.45;;;12.10;99.90;;;;;;5021290;28;20038;-41
2022/10/02 04:36:49;;;;;;;3.93;2.03;;;12.10;99.90;;;;;;5020748;28;20037;-42
2022/10/02 04:39:18;;;;;;;9.13;4.45;;;12.10;99.90;;;;;;5022419;28;20049;-38
2022/10/02 04:41:52;;;;;;;3.85;2.30;;;12.00;99.90;;;;;;5017239;28;20033;-41
2022/10/02 04:44:31;;;;;;;7.65;3.97;;;12.10;99.90;;;;;;5017977;28;20429;-42
2022/10/02 04:47:42;;;;;;;2.67;1.60;;;12.10;99.90;;;;;;5016137;28;20037;-40
2022/10/02 04:50:43;;;;;;;7.07;3.30;;;12.10;99.90;;;;;;4947059;28;20118;-41
2022/10/02 04:53:18;;;;;;;3.90;2.40;;;12.10;99.90;;;;;;5017244;28;20036;-42
2022/10/02 04:56:15;;;;;;;4.85;1.70;;;12.10;99.90;;;;;;5021962;28;20029;-43
2022/10/02 04:59:02;;;;;;;4.05;1.77;;;12.00;99.90;;;;;;5019804;28;20044;-42
2022/10/02 05:01:55;;;;;;;3.00;1.50;;;12.10;99.90;;;;;;5024336;28;20035;-43
2022/10/02 05:04:45;;;;;;;4.95;1.73;;;12.10;99.90;;;;;;5023110;28;20033;-33
2022/10/02 05:07:47;;;;;;;3.38;1.30;;;12.00;99.90;;;;;;5023268;28;20029;-42
2022/10/02 05:10:34;;;;;;;2.03;1.10;;;12.10;99.90;;;;;;5022671;28;20033;-42
2022/10/02 05:13:21;;;;;;;2.25;1.30;;;12.10;99.90;;;;;;5022991;28;20156;-40
2022/10/02 05:16:31;;;;;;;2.35;1.10;;;12.10;99.90;;;;;;5023021;28;20045;-43
2022/10/02 05:19:21;;;;;;;2.40;0.90;;;12.20;99.90;;;;;;5024332;28;20129;-37
2022/10/02 05:21:59;;;;;;;2.22;1.20;;;12.30;99.90;;;;;;5020817;28;20046;-42
2022/10/02 05:24:40;;;;;;;5.88;1.38;;;12.30;99.90;;;;;;5026315;28;20028;-40
2022/10/02 05:27:37;;;;;;;4.00;1.00;;;12.30;99.90;;;;;;5023284;28;20033;-40
2022/10/02 05:30:12;;;;;;;1.98;1.00;;;12.30;99.90;;;;;;5026310;28;20430;-40
2022/10/02 05:33:14;;;;;;;3.03;1.02;;;12.30;99.90;;;;;;5019710;28;20030;-40
2022/10/02 05:35:52;;;;;;;2.33;0.95;;;12.30;99.90;;;;;;5017685;28;20068;-43
2022/10/02 05:38:26;;;;;;;5.10;1.40;;;12.30;99.90;;;;;;5026518;28;20112;-42
2022/10/02 05:41:04;;;;;;;4.28;1.40;;;12.30;99.90;;;;;;5026265;28;20449;-39
2022/10/02 05:43:43;;;;;;;1.77;1.13;;;12.30;99.90;;;;;;5023022;28;20025;-34
2022/10/02 05:46:40;;;;;;;6.07;1.65;;;12.30;99.90;;;;;;5021940;28;20129;-43
2022/10/02 05:49:15;;;;;;;2.92;1.45;;;12.40;99.90;;;;;;5024635;28;20025;-43
2022/10/02 05:52:05;;;;;;;2.42;1.40;;;12.30;99.90;;;;;;5021269;28;20048;-43
2022/10/02 05:54:46;;;;;;;2.45;1.40;;;12.40;99.90;;;;;;5020519;28;20403;-35
2022/10/02 05:57:25;;;;;;;1.67;1.30;;;12.30;99.90;;;;;;5021394;28;20063;-41
2022/10/02 06:00:34;;;;;;;2.78;1.30;;;12.30;99.90;;;;;;5024494;28;20064;-35
2022/10/02 06:03:03;;;;;;;3.08;1.50;;;12.30;99.90;;;;;;4983103;28;20045;-42
2022/10/02 06:05:45;;;;;;;6.55;1.60;;;12.30;99.90;;;;;;5023554;28;20117;-41
2022/10/02 06:08:14;;;;;;;2.97;1.95;;;12.30;99.90;;;;;;5022705;28;20634;-42
2022/10/02 06:10:45;;;;;;;2.58;1.60;;;12.30;99.90;;;;;;5022379;28;20025;-37
2022/10/02 06:13:17;;;;;;;3.42;1.40;;;12.30;99.90;;;;;;5022409;28;20035;-38
2022/10/02 06:15:50;;;;;;;2.60;1.08;;;12.30;99.90;;;;;;5024479;28;20486;-43
2022/10/02 06:18:24;;;;;;;1.95;1.20;;;12.30;99.90;;;;;;5022359;28;20088;-42
2022/10/02 06:21:02;;;;;;;3.08;1.50;;;12.30;99.90;;;;;;5020738;28;20107;-42
2022/10/02 06:23:42;;;;;;;2.40;1.23;;;12.30;99.90;;;;;;5023451;28;20060;-40
2022/10/02 06:26:36;;;;;;;4.18;1.38;;;12.30;99.90;;;;;;5021523;28;20051;-41
2022/10/02 06:29:12;;;;;;;2.75;1.35;;;12.30;99.90;;;;;;5015215;28;20112;-37
2022/10/02 06:31:57;;;;;;;1.30;1.20;;;12.40;99.90;;;;;;5019524;28;20424;-43
2022/10/02 06:34:23;;;;;;;3.45;2.28;;;12.30;99.90;;;;;;5018079;28;20116;-39
2022/10/02 06:37:10;;;;;;;2.50;1.13;;;12.30;99.90;;;;;;5024751;28;20121;-43
2022/10/02 06:40:19;;;;;;;2.03;1.27;;;12.30;99.90;;;;;;5022100;28;20036;-37
2022/10/02 06:42:59;;;;;;;4.38;1.70;;;12.40;99.90;;;;;;4998497;28;20037;-41
2022/10/02 06:45:51;;;;;;;2.20;1.52;;;12.40;99.90;;;;;;5018743;28;20120;-43
2022/10/02 06:48:29;;;;;;;3.55;1.52;;;12.40;99.90;;;;;;5022308;28;20126;-43
2022/10/02 06:51:05;;;;;;;3.50;1.98;;;12.40;99.90;;;;;;5021909;28;20052;-41
2022/10/02 06:53:44;;;;;;;2.20;1.70;;;12.40;99.90;;;;;;5019438;28;20502;-38
2022/10/02 06:56:10;;;;;;;;;;;12.30;99.90;;;;;;5019193;28;20034;-41
2022/10/02 06:59:03;;;;;;;1.73;1.33;;;12.40;99.90;;;;;;5019009;28;19917;-42
2022/10/02 07:01:53;;;;;;;2.03;1.40;;;12.40;99.90;;;;;;5019932;28;20037;-42
2022/10/02 07:04:44;;;;;;;1.85;1.40;;;12.40;99.90;;;;;;5017670;28;20027;-42
2022/10/02 07:07:20;;;;;;;4.78;1.80;;;12.50;99.90;;;;;;5020445;28;20403;-43
2022/10/02 07:09:55;;;;;;;1.05;1.02;;;12.50;99.90;;;;;;5021884;28;20029;-43
2022/10/02 07:12:46;;;;;;;1.98;1.30;;;12.50;99.90;;;;;;5021025;28;20030;-39
2022/10/02 07:15:41;;;;;;;2.88;1.50;;;12.60;99.90;;;;;;5013825;28;20044;-42
2022/10/02 07:18:25;;;;;;;2.17;1.38;;;12.60;99.90;;;;;;5009391;28;20040;-40
2022/10/02 07:21:19;;;;;;;2.83;2.05;;;12.60;99.90;;;;;;5018199;28;20047;-41
2022/10/02 07:24:19;;;;;;;3.42;1.40;;;12.60;99.90;;;;;;5018984;28;20034;-42
2022/10/02 07:26:46;;;;;;;1.48;1.30;;;12.70;99.90;;;;;;5017927;28;20052;-41
2022/10/02 07:29:25;;;;;;;3.95;1.55;;;12.70;99.90;;;;;;5016160;28;20499;-38
2022/10/02 07:31:53;;;;;;;;;;;12.70;99.90;;;;;;5019364;28;20049;-34
2022/10/02 07:34:50;;;;;;;3.30;2.13;;;12.80;99.90;;;;;;5015558;28;20332;-43
2022/10/02 07:37:38;;;;;;;3.40;2.10;;;12.80;99.90;;;;;;5017755;28;20032;-37
2022/10/02 07:40:12;;;;;;;5.45;2.58;;;12.80;99.90;;;;;;5017316;28;20183;-42
2022/10/02 07:42:56;;;;;;;4.15;2.42;;;12.80;99.90;;;;;;5017986;28;20033;-41
2022/10/02 07:45:38;;;;;;;6.20;2.88;;;12.90;99.90;;;;;;5019597;28;20120;-40
2022/10/02 07:48:06;;;;;;;4.95;2.60;;;12.90;99.90;;;;;;5024574;28;20140;-41
2022/10/02 07:50:40;;;;;;;;;;;12.80;99.90;;;;;;5024136;28;20499;-39
2022/10/02 07:53:29;;;;;;;5.25;3.40;;;12.80;99.90;;;;;;5017563;28;20151;-37
2022/10/02 07:55:56;;;;;;;6.70;3.63;;;13.00;99.90;;;;;;5014885;28;20111;-42
2022/10/02 07:58:35;;;;;;;6.57;4.10;;;12.90;99.90;;;;;;5017876;28;20445;-41
2022/10/02 08:01:07;;;;;;;4.68;4.22;;;13.00;99.90;;;;;;5015911;28;20087;-38
2022/10/02 08:03:50;;;;;;;5.32;3.15;;;13.00;99.90;;;;;;5017233;28;20116;-42
2022/10/02 08:06:17;;;;;;;5.35;3.42;;;13.00;99.90;;;;;;5016315;28;20025;-40
2022/10/02 08:08:58;;;;;;;5.53;3.10;;;13.00;99.90;;;;;;5018871;28;20056;-40
2022/10/02 08:11:29;;;;;;;3.60;2.85;;;13.10;99.90;;;;;;5017329;28;20037;-37
2022/10/02 08:13:57;;;;;;;6.05;2.83;;;13.10;99.90;;;;;;5017251;28;20033;-41
2022/10/02 08:16:35;;;;;;;6.63;3.00;;;13.20;99.90;;;;;;5014709;28;20037;-37
2022/10/02 08:19:05;;;;;;;6.75;2.95;;;13.30;99.90;;;;;;5017365;28;20052;-38
2022/10/02 08:21:39;;;;;;;5.93;2.50;;;13.30;99.90;;;;;;5018594;28;20139;-39
2022/10/02 08:24:26;;;;;;;5.20;2.75;;;13.30;99.90;;;;;;5020225;28;20498;-36
2022/10/02 08:26:57;;;;;;;3.30;2.38;;;13.40;99.90;;;;;;5014037;28;20026;-37
2022/10/02 08:29:43;;;;;;;4.78;2.60;;;13.50;99.90;;;;;;5015604;28;20413;-40
2022/10/02 08:32:12;;;;;;;7.28;2.67;;;13.60;99.90;;;;;;5020494;28;20426;-42
2022/10/02 08:34:39;;;;;;;5.28;2.30;;;13.70;99.90;;;;;;5012606;28;20072;-38
2022/10/02 08:37:23;;;;;;;8.82;2.70;;;13.80;99.90;;;;;;5013570;28;20028;-39
2022/10/02 08:40:10;;;;;;;5.53;2.60;;;13.80;99.90;;;;;;5017240;28;20067;-39
2022/10/02 08:43:12;;;;;;;5.90;2.60;;;13.70;99.90;;;;;;5015357;28;20484;-42
2022/10/02 08:45:41;;;;;;;3.90;2.47;;;13.70;99.90;;;;;;5014254;28;21091;-36
2022/10/02 08:48:15;;;;;;;;;;;13.70;99.90;;;;;;5017556;28;20025;-39
2022/10/02 08:51:11;;;;;;;2.95;2.45;;;13.70;99.90;;;;;;5014401;28;19923;-36
2022/10/02 08:54:15;;;;;;;3.17;2.42;;;13.70;99.90;;;;;;5014966;28;20041;-38
2022/10/02 08:57:30;;;;;;;5.78;2.63;;;13.70;99.90;;;;;;5012690;28;20051;-36
2022/10/02 09:00:22;;;;;;;5.05;3.08;;;13.90;99.90;;;;;;5015627;28;20079;-38
2022/10/02 09:03:24;;;;;;;6.35;3.05;;;14.00;99.90;;;;;;5016449;28;20064;-35
2022/10/02 09:06:19;;;;;;;3.75;2.50;;;14.00;99.90;;;;;;5018187;28;20112;-41
2022/10/02 09:08:44;;;;;;;4.38;2.53;;;14.00;99.90;;;;;;5014553;28;20425;-43
2022/10/02 09:11:35;;;;;;;5.68;3.20;;;14.10;99.90;;;;;;5017468;28;20037;-42
2022/10/02 09:14:29;;;;;;;3.13;2.40;;;14.10;99.90;;;;;;5017770;28;20035;-41
2022/10/02 09:17:31;;;;;;;3.80;2.55;;;14.10;99.90;;;;;;5016696;28;20053;-41
2022/10/02 09:20:44;;;;;;;6.43;2.42;;;14.10;99.90;;;;;;5017941;28;20454;-41
2022/10/02 09:23:49;;;;;;;3.38;2.15;;;14.20;99.90;;;;;;5001718;28;20972;-42
2022/10/02 09:26:30;;;;;;;6.68;2.72;;;14.20;99.90;;;;;;5017740;28;20179;-43
2022/10/02 09:29:05;;;;;;;6.45;2.55;;;14.30;99.90;;;;;;5012680;28;20386;-36
2022/10/02 09:31:45;;;;;;;8.65;3.25;;;14.30;99.90;;;;;;5021640;28;20514;-40
2022/10/02 09:34:46;;;;;;;3.97;2.30;;;14.40;99.90;;;;;;5010954;28;20029;-39
2022/10/02 09:37:40;;;;;;;8.05;2.70;;;14.60;99.90;;;;;;5013460;28;20033;-37
2022/10/02 09:40:41;;;;;;;3.50;2.20;;;14.80;99.90;;;;;;5012858;28;20029;-38
2022/10/02 09:43:33;;;;;;;3.20;2.22;;;14.80;99.90;;;;;;5019413;28;20096;-43
2022/10/02 09:46:21;;;;;;;3.13;1.92;;;14.70;99.90;;;;;;5019964;28;20076;-36
2022/10/02 09:49:19;;;;;;;4.28;1.90;;;14.70;99.90;;;;;;5020425;28;20065;-42
2022/10/02 09:52:09;;;;;;;3.20;1.80;;;14.80;99.90;;;;;;5018892;28;20045;-41
2022/10/02 09:54:40;;;;;;;2.90;2.05;;;14.90;99.90;;;;;;5021975;28;20545;-42
2022/10/02 09:57:44;;;;;;;2.35;2.03;;;15.00;99.90;;;;;;5023841;28;20763;-42
2022/10/02 10:00:31;;;;;;;2.70;2.10;;;15.00;99.90;;;;;;5018239;28;20045;-42
2022/10/02 10:03:41;;;;;;;3.75;2.20;;;15.10;99.90;;;;;;5014302;28;20537;-40
2022/10/02 10:06:35;;;;;;;7.65;5.38;;;15.30;99.90;;;;;;5018449;28;20159;-37
2022/10/02 10:09:19;;;;;;;2.83;1.30;;;15.60;99.90;;;;;;5014062;28;20379;-39
2022/10/02 10:12:05;;;;;;;2.20;1.30;;;16.00;99.90;;;;;;5020590;28;20034;-42
2022/10/02 10:15:02;;;;;;;1.50;1.30;;;16.30;99.90;;;;;;5022193;28;20033;-41
2022/10/02 10:18:02;;;;;;;1.42;1.33;;;16.60;99.90;;;;;;5020287;28;20505;-41
2022/10/02 10:20:53;;;;;;;1.83;1.00;;;17.00;99.90;;;;;;5021172;28;20658;-40
2022/10/02 10:23:35;;;;;;;3.83;1.00;;;17.10;99.90;;;;;;5018895;28;20438;-39
2022/10/02 10:26:42;;;;;;;2.33;1.15;;;17.30;99.90;;;;;;5019418;28;20034;-40
2022/10/02 10:29:47;;;;;;;2.53;0.90;;;17.40;99.90;;;;;;5019153;28;20141;-38
2022/10/02 10:32:44;;;;;;;1.65;0.80;;;17.30;99.90;;;;;;5018477;28;20041;-38
2022/10/02 10:35:22;;;;;;;0.95;0.80;;;17.20;99.90;;;;;;5021542;28;20052;-42
2022/10/02 10:40:53;;;;;;;2.05;0.80;;;17.20;99.90;;;;;;5027014;28;20047;-42
2022/10/02 10:43:40;;;;;;;2.20;0.80;;;17.30;99.90;;;;;;5022049;28;20033;-41
2022/10/02 10:46:25;;;;;;;2.30;0.90;;;17.30;99.90;;;;;;5022722;28;20060;-38
2022/10/02 10:49:41;;;;;;;1.10;0.82;;;17.30;99.90;;;;;;5020269;28;20064;-41
2022/10/02 10:52:34;;;;;;;2.57;0.97;;;17.30;99.90;;;;;;5006546;28;20520;-36
2022/10/02 10:55:28;;;;;;;0.70;0.70;;;17.30;99.90;;;;;;5018335;28;20364;-42
2022/10/02 10:58:28;;;;;;;0.80;0.80;;;17.30;99.90;;;;;;5022112;28;20455;-38
2022/10/02 11:01:13;;;;;;;1.00;0.70;;;17.30;99.90;;;;;;5001730;28;20107;-40
2022/10/02 11:04:02;;;;;;;0.50;0.50;;;17.40;99.90;;;;;;5019808;28;20040;-36
2022/10/02 11:06:31;;;;;;;0.80;0.80;;;17.50;99.90;;;;;;5019733;28;20091;-39
2022/10/02 11:09:31;;;;;;;0.80;0.80;;;17.40;99.90;;;;;;5018467;28;20473;-33
2022/10/02 11:12:03;;;;;;;0.40;0.40;;;17.60;99.90;;;;;;5017549;28;20033;-35
2022/10/02 11:14:58;;;;;;;0.40;0.40;;;17.70;99.90;;;;;;5016180;28;20033;-33
2022/10/02 11:17:26;;;;;;;1.80;0.60;;;17.90;99.90;;;;;;5015694;28;20116;-40
2022/10/02 11:20:23;;;;;;;0.55;0.50;;;18.00;99.90;;;;;;5021788;28;20044;-39
2022/10/02 11:23:33;;;;;;;1.95;0.73;;;18.20;99.90;;;;;;5020117;28;20549;-39
2022/10/02 11:26:27;;;;;;;0.77;0.77;;;18.30;99.90;;;;;;4985982;28;20065;-40
2022/10/02 11:29:11;;;;;;;0.50;0.50;;;18.20;99.90;;;;;;5020451;28;20048;-39
2022/10/02 11:32:16;;;;;;;0.70;0.70;;;18.10;99.90;;;;;;5018913;28;20046;-33
2022/10/02 11:35:00;;;;;;;0.40;0.40;;;18.00;99.90;;;;;;4998619;28;20108;-38
2022/10/02 11:37:38;;;;;;;0.40;0.40;;;18.10;99.90;;;;;;5017903;28;20268;-34
2022/10/02 11:40:13;;;;;;;1.15;0.60;;;18.10;99.90;;;;;;5017656;28;20033;-37
2022/10/02 11:42:56;;;;;;;1.02;0.57;;;18.10;99.90;;;;;;5018925;28;20127;-36
2022/10/02 11:45:31;;;;;;;1.50;0.55;;;18.10;99.90;;;;;;5019206;28;20112;-42
2022/10/02 11:48:22;;;;;;;1.10;0.35;;;18.20;99.90;;;;;;5017815;28;20022;-40
2022/10/02 11:51:09;;;;;;;0.73;0.50;;;18.20;99.90;;;;;;5017959;28;20487;-34
2022/10/02 11:53:56;;;;;;;0.50;0.50;;;18.20;99.90;;;;;;5019782;28;20029;-41
2022/10/02 11:56:41;;;;;;;0.40;0.40;;;18.30;99.90;;;;;;5017819;28;20064;-41
2022/10/02 11:59:33;;;;;;;0.65;0.40;;;18.30;99.90;;;;;;5021287;28;20025;-39
2022/10/02 12:02:04;;;;;;;0.77;0.50;;;18.50;99.90;;;;;;5017338;28;20041;-41
2022/10/02 12:04:41;;;;;;;0.57;0.57;;;18.70;99.90;;;;;;5016770;28;20033;-42
2022/10/02 12:07:17;;;;;;;0.63;0.52;;;18.80;99.90;;;;;;5018740;28;20025;-40
2022/10/02 12:10:15;;;;;;;0.40;0.40;;;18.80;99.90;;;;;;5018155;28;20069;-41
2022/10/02 12:12:56;;;;;;;0.65;0.60;;;19.00;99.90;;;;;;5014759;28;20091;-42
2022/10/02 12:15:53;;;;;;;0.38;0.38;;;19.20;99.90;;;;;;5016271;28;20525;-42
2022/10/02 12:18:40;;;;;;;1.23;1.23;;;18.90;99.90;;;;;;5018317;28;20040;-42
2022/10/02 12:27:37;;;;;;;3.30;1.48;;;18.40;99.90;;;;;;5017914;28;20698;-36
2022/10/02 12:30:09;;;;;;;4.45;1.80;;;17.80;99.90;;;;;;5015625;28;20044;-37
2022/10/02 12:32:48;;;;;;;1.75;1.35;;;16.50;99.90;;;;;;5021276;28;20585;-39
2022/10/02 12:35:40;;;;;;;3.60;1.95;;;16.30;99.90;;;;;;5018443;28;20029;-35
2022/10/02 12:38:22;;;;;;;2.67;1.70;;;16.40;99.90;;;;;;5017457;28;20076;-40
2022/10/02 12:41:12;;;;;;;4.20;1.95;;;16.20;99.90;;;;;;5016574;28;20032;-40
2022/10/02 12:44:04;;;;;;;2.67;1.92;;;16.00;99.90;;;;;;5015112;28;20037;-36
2022/10/02 12:46:58;;;;;;;5.00;1.98;;;15.50;99.90;;;;;;5014039;28;20072;-43
2022/10/02 12:49:44;;;;;;;3.78;2.22;;;15.00;99.90;;;;;;5011817;28;20068;-41
2022/10/02 12:52:49;;;;;;;5.03;2.20;;;14.80;99.90;;;;;;5010532;28;20039;-40
2022/10/02 12:55:57;;;;;;;3.20;2.28;;;14.70;99.90;;;;;;5018264;28;20029;-42
2022/10/02 12:58:46;;;;;;;4.68;2.30;;;14.60;99.90;;;;;;5019365;28;20462;-40
2022/10/02 13:01:43;;;;;;;2.85;2.00;;;14.60;99.90;;;;;;5017872;28;20054;-42
2022/10/02 13:04:36;;;;;;;2.40;2.10;;;14.50;99.90;;;;;;5016462;28;20029;-41
2022/10/02 13:07:05;;;;;;;3.25;2.30;;;14.40;99.90;;;;;;5019694;28;20080;-42
2022/10/02 13:09:46;;;;;;;2.72;1.95;;;14.30;99.90;;;;;;5013416;28;20079;-39
2022/10/02 13:12:18;;;;;;;3.55;2.33;;;14.30;99.90;;;;;;5017460;28;20034;-42
2022/10/02 13:15:17;;;;;;;2.53;2.10;;;14.20;99.90;;;;;;5017831;28;20052;-38
2022/10/02 13:18:01;;;;;;;2.30;1.98;;;14.20;99.90;;;;;;5015570;28;20068;-38
2022/10/02 13:20:27;;;;;;;4.68;2.00;;;14.20;99.90;;;;;;5019412;28;21194;-38
2022/10/02 13:23:13;;;;;;;1.92;1.55;;;14.20;99.90;;;;;;5019308;28;20034;-42
2022/10/02 13:26:12;;;;;;;2.05;1.85;;;14.10;99.90;;;;;;5016763;28;20040;-36
2022/10/02 13:28:43;;;;;;;2.70;1.88;;;14.00;99.90;;;;;;5017560;28;20061;-35
2022/10/02 13:31:21;;;;;;;1.75;1.63;;;14.00;99.90;;;;;;5021498;28;20041;-40
2022/10/02 13:33:58;;;;;;;2.75;2.00;;;14.00;99.90;;;;;;5018487;28;20040;-38
2022/10/02 13:37:00;;;;;;;1.90;1.70;;;13.90;99.90;;;;;;5019863;28;20072;-41
2022/10/02 13:39:37;;;;;;;2.78;1.50;;;13.80;99.90;;;;;;5017446;28;20497;-39
2022/10/02 13:42:17;;;;;;;2.07;1.30;;;13.60;99.90;;;;;;5019827;28;20469;-38
2022/10/02 13:45:09;;;;;;;2.90;1.30;;;13.50;99.90;;;;;;5016467;28;20029;-42
2022/10/02 13:47:42;;;;;;;3.22;1.67;;;13.60;99.90;;;;;;5016813;28;20025;-40
2022/10/02 13:50:41;;;;;;;2.53;1.45;;;13.80;99.90;;;;;;5015940;28;20033;-42
2022/10/02 13:53:32;;;;;;;1.67;1.40;;;13.80;99.90;;;;;;4948647;28;20053;-41
2022/10/02 13:56:19;;;;;;;1.40;1.30;;;13.70;99.90;;;;;;5018916;28;20439;-39
2022/10/02 13:59:32;;;;;;;2.72;1.55;;;13.60;99.90;;;;;;5018541;28;20111;-42
2022/10/02 14:02:39;;;;;;;1.30;1.20;;;13.60;99.90;;;;;;4936885;28;20088;-41
2022/10/02 14:05:21;;;;;;;1.63;1.10;;;13.60;99.90;;;;;;4937472;28;20787;-39
2022/10/02 14:08:10;;;;;;;2.35;1.02;;;13.50;99.90;;;;;;5012560;28;20041;-41
2022/10/02 14:11:03;;;;;;;1.00;1.00;;;13.50;99.90;;;;;;5010687;28;20507;-42
2022/10/02 14:13:50;;;;;;;0.70;0.70;;;13.40;99.90;;;;;;5019945;28;20779;-41
2022/10/02 14:16:34;;;;;;;0.90;0.90;;;13.30;99.90;;;;;;5017402;28;20026;-43
2022/10/02 14:19:06;;;;;;;2.30;1.08;;;13.30;99.90;;;;;;5022579;28;20118;-37